Detall de PIREP

Printer-friendly versionPDF version

[2013/10/19 07:49:00]
Flight IATA:CT3244
Pilot Number:012
Company ICAO:CAT
Aircraft Type:A320/E
PAX:150
Departing Airport: LEPA
Destination Airport: ESSA
Alternate Airport:ESGG
Online: VATSIM
Route:ISTER/M080F340 UN851 MAKEL/M080F350 N851 PELUP Z226 NILUG
Flight Level:F350
No Slew and time accel
No pause
Crash detect
Detect pilot in Cockpit between each 30 and 45 minutes
07:49 Zero fuel Weight: 120119 Lbs, Fuel Weight: 32555 Lbs
07:49 VATSIM:LEPA 190700Z VRB02KT 9999 SCT025 20/18 Q1016 NOSIG
07:49 VATSIM:ESSA 190720Z 27005KT CAVOK 01/M01 Q1014 NOSIG
07:49 VOICE CATALONIAN
07:53 Parking Brakes off
07:58 Take-off
07:58 Take off Weight: 151727 Lbs
07:58 Wind: 359º @ 002 Knots Heading: 238º
07:58 POS N39º 33´ 05´´ E002º 43´ 13´´
07:58 Gear Up: 173 Knots
07:58 Flaps:3 at 173 Knots
07:59 Flaps:2 at 194 Knots
07:59 Flaps:1 at 200 Knots
07:59 Flaps:0 at 221 Knots
08:13 Wind:275º@021 Knots Heading: 061º Ground Speed: 481 Knots Altitude 28989 ft
08:28 Wind:246º@021 Knots Heading: 060º Ground Speed: 476 Knots Altitude 34163 ft
08:43 Wind:225º@024 Knots Heading: 020º Ground Speed: 478 Knots Altitude 34196 ft
08:58 Wind:237º@029 Knots Heading: 016º Ground Speed: 476 Knots Altitude 34219 ft
09:13 Wind:234º@029 Knots Heading: 349º Ground Speed: 463 Knots Altitude 34271 ft
09:28 Wind:246º@030 Knots Heading: 016º Ground Speed: 469 Knots Altitude 34133 ft
09:43 Wind:267º@020 Knots Heading: 003º Ground Speed: 453 Knots Altitude 34084 ft
09:58 Wind:261º@019 Knots Heading: 016º Ground Speed: 457 Knots Altitude 34025 ft
10:13 Wind:283º@044 Knots Heading: 016º Ground Speed: 449 Knots Altitude 34068 ft
10:25 TOC
10:25 Fuel Weight: 14821 Lb
10:28 Wind:291º@068 Knots Heading: 018º Ground Speed: 446 Knots Altitude 35147 ft
10:43 Wind:294º@084 Knots Heading: 025º Ground Speed: 452 Knots Altitude 35160 ft
10:58 Wind:299º@110 Knots Heading: 024º Ground Speed: 444 Knots Altitude 35088 ft
10:59 TOD
10:59 Fuel Weight: 11766 Lb
11:13 Wind:296º@020 Knots Heading: 015º Ground Speed: 317 Knots Altitude 9862 ft
11:20 Flaps:1 at 210 Knots
11:20 Flaps:3 at 201 Knots
11:22 Flaps:4 at 173 Knots
11:22 Gear Down: 169 Knots
11:24 Flaps:5 at 149 Knots
11:26 TouchDown:Rate -96 ft/min Speed: 133 Knots
11:26 VATSIM:ESSA 191050Z 26007KT CAVOK 06/M01 Q1015 NOSIG
11:26 Land
11:26 Wind:254º@007 Knots
11:26 Heading: 256º
11:26 Flight Duration: 03:28
11:26 Landing Weight: 129687 Lbs
11:26 POS N59º 39´ 38´´ E017º 57´ 20´´
11:38 Parking brakes on
11:38 Block to Block Duration: 03:45
11:38 Final Fuel: 8362 Lbls
11:38 Spent Fuel: 24193 Lbls
11:38 Flight Length: 1501 NM
11:38 TOD Land Length: 132 NM

Exportar CSV

Powered by Drupal - Modified by Danger4k